Flight Track Log - Related Links

Times and Time Zones

All times are in EDT time to prevent confusion due to time zone crossing. See the BER6124 flight status page for this flight to view local times or setup timezone preferences in your user account.

Time Position Orientation Groundspeed Altitude Reporting Facility
EDT Latitude Longitude Course Direction KTS MPH feet Rate Location/Type
Mon 01:07:00 PM 48.9277 10.7952 312° West  Level Estimated
Mon 01:08:00 PM 48.9847 10.6949 311° West  Level Estimated
Mon 01:09:00 PM 49.0415 10.5944 311° West  Level Estimated
Mon 01:10:00 PM 49.0983 10.4936 311° West  Level Estimated
Mon 01:11:00 PM 49.1549 10.3926 311° West  Level Estimated
Mon 01:12:00 PM 49.2115 10.2913 311° West  Level Estimated
Mon 01:13:00 PM 49.2680 10.1898 310° West  Level Estimated
Mon 01:14:00 PM 49.3244 10.0881 310° West  Level Estimated
Mon 01:15:00 PM 49.3807 9.9861 310° West  Level Estimated
Mon 01:16:00 PM 49.4369 9.8840 310° West  Level Estimated
Mon 01:17:00 PM 49.4930 9.7816 310° West  Level Estimated
Mon 01:18:00 PM 49.5491 9.6789 310° West  Level Estimated
Mon 01:19:00 PM 49.6050 9.5760 310° West  Level Estimated
Mon 01:20:00 PM 49.6609 9.4729 310° West  Level Estimated
Mon 01:21:00 PM 49.7166 9.3695 310° West  Level Estimated
Mon 01:22:00 PM 49.7723 9.2659 310° West  Level Estimated
Mon 01:23:00 PM 49.8279 9.1621 310° West  Level Estimated
Mon 01:24:00 PM 49.8834 9.0580 310° West  Level Estimated
Mon 01:25:00 PM 49.9388 8.9537 310° West  Level Estimated
Mon 01:26:00 PM 49.9940 8.8491 309° West  Level Estimated
Mon 01:27:00 PM 50.0493 8.7444 309° West  Level Estimated
Mon 01:28:00 PM 50.1044 8.6393 309° West  Level Estimated
Mon 01:29:00 PM 50.1594 8.5340 309° West  Level Estimated
Mon 01:30:00 PM 50.2143 8.4285 309° West  Level Estimated
Mon 01:31:00 PM 50.2691 8.3228 309° West  Level Estimated
Mon 01:32:00 PM 50.3238 8.2168 309° West  Level Estimated
Mon 01:33:00 PM 50.3785 8.1105 309° West  Level Estimated
Mon 01:34:00 PM 50.4330 8.0040 309° West  Level Estimated
Mon 01:35:00 PM 50.4874 7.8973 309° West  Level Estimated
Mon 01:36:00 PM 50.5418 7.7903 309° West  Level Estimated
Mon 01:37:00 PM 50.5960 7.6830 309° West  Level Estimated
Mon 01:38:00 PM 50.6502 7.5756 308° West  Level Estimated
Mon 01:39:00 PM 50.7042 7.4678 308° West  Level Estimated
Mon 01:40:00 PM 50.7581 7.3598 308° West  Level Estimated
Mon 01:41:00 PM 50.8120 7.2516 308° West  Level Estimated
Mon 01:42:00 PM 50.8657 7.1432 308° West  Level Estimated
Mon 01:43:00 PM 50.8659 7.1427 308° West  Level Estimated
Mon 01:44:00 PM 50.8659 7.1427 140° Southeast  Level Estimated
Mon 01:45:00 PM 50.8659 7.1427 140° Southeast  Level Estimated
Mon 01:46:00 PM 50.8659 7.1427 140° Southeast  Level Estimated
Mon 01:47:00 PM 50.8659 7.1427 140° Southeast  Level Estimated
Mon 01:48:00 PM 50.8659 7.1427 140° Southeast  Level Estimated
Mon 01:49:00 PM 50.8659 7.1427 140° Southeast  Level Estimated
Mon 01:50:00 PM 50.8659 7.1427 140° Southeast  Level Estimated
Mon 01:51:00 PM 50.8659 7.1427 140° Southeast  Level Estimated
Mon 01:52:00 PM 50.8659 7.1427 140° Southeast  Level Estimated
Mon 01:53:00 PM 50.8659 7.1427 140° Southeast  Level Estimated
Mon 01:54:00 PM 50.8659 7.1427 140° Southeast  Level Estimated
Mon 01:55:00 PM 50.8659 7.1427 140° Southeast  Level Estimated

Login

Don't have an account? Register now (free) for customized features, flight alerts, and more!